createdAt,value
2023-05-11T00:00:37.519Z,101474.52
2023-05-11T00:03:04.602Z,101471.45
2023-05-11T00:05:31.676Z,101474.52
2023-05-11T00:07:58.739Z,101478.42
2023-05-11T00:10:25.744Z,101477.34
2023-05-11T00:12:52.511Z,101475.79
2023-05-11T00:15:19.802Z,101476.43
2023-05-11T00:17:47.112Z,101472.48
2023-05-11T00:20:14.108Z,101476.14
2023-05-11T00:22:41.941Z,101475.08
2023-05-11T00:25:10.451Z,101476.20
2023-05-11T00:27:37.491Z,101476.86
2023-05-11T00:30:05.296Z,101474.16
2023-05-11T00:32:32.541Z,101475.73
2023-05-11T00:34:59.895Z,101475.37
2023-05-11T00:37:26.798Z,101480.21
2023-05-11T00:39:53.701Z,101484.19
2023-05-11T00:42:21.049Z,101485.58
2023-05-11T00:44:47.982Z,101484.21
2023-05-11T00:47:14.908Z,101483.91
2023-05-11T00:49:41.637Z,101485.77
2023-05-11T00:52:08.613Z,101484.69
2023-05-11T00:54:35.772Z,101482.20
2023-05-11T00:57:03.436Z,101484.77
2023-05-11T00:59:30.170Z,101483.50
2023-05-11T01:01:56.975Z,101482.39
2023-05-11T01:04:24.034Z,101488.19
2023-05-11T01:06:53.759Z,101481.52
2023-05-11T01:09:23.413Z,101481.37
2023-05-11T01:11:56.701Z,101479.63
2023-05-11T01:14:30.033Z,101477.61
2023-05-11T01:16:59.519Z,101478.14
2023-05-11T01:19:58.811Z,101478.67
2023-05-11T01:22:48.582Z,101478.80
2023-05-11T01:25:23.824Z,101477.36
2023-05-11T01:28:24.614Z,101478.02
2023-05-11T01:30:54.648Z,101479.66
2023-05-11T01:33:25.814Z,101478.80
2023-05-11T01:35:53.425Z,101480.87
2023-05-11T01:38:21.460Z,101476.77
2023-05-11T01:40:52.890Z,101478.14
2023-05-11T01:43:21.637Z,101479.52
2023-05-11T01:45:51.274Z,101480.23
2023-05-11T01:48:21.009Z,101484.13
2023-05-11T01:50:47.905Z,101481.46
2023-05-11T01:53:15.457Z,101482.02
2023-05-11T01:55:42.421Z,101482.27
2023-05-11T01:58:10.054Z,101475.58
2023-05-11T02:00:36.979Z,101480.73
2023-05-11T02:03:05.212Z,101478.11
2023-05-11T02:05:33.532Z,101478.45
2023-05-11T02:08:02.465Z,101478.65
2023-05-11T02:10:32.256Z,101475.07
2023-05-11T02:12:59.219Z,101471.49
2023-05-11T02:15:26.054Z,101478.19
2023-05-11T02:17:53.042Z,101476.83
2023-05-11T02:20:20.494Z,101478.77
2023-05-11T02:22:47.802Z,101473.48
2023-05-11T02:25:14.756Z,101478.35
2023-05-11T02:27:42.050Z,101472.02
2023-05-11T02:30:09.460Z,101475.42
2023-05-11T02:32:38.384Z,101473.80
2023-05-11T02:35:09.134Z,101471.98
2023-05-11T02:37:41.022Z,101478.69
2023-05-11T02:40:12.904Z,101476.61
2023-05-11T02:42:40.202Z,101477.71
2023-05-11T02:45:07.987Z,101482.03
2023-05-11T02:47:55.654Z,101488.38
2023-05-11T02:50:24.967Z,101487.23
2023-05-11T02:52:54.906Z,101487.97
2023-05-11T02:55:23.342Z,101492.11
2023-05-11T03:01:06.060Z,101492.40
2023-05-11T03:03:33.548Z,101497.83
2023-05-11T03:06:00.676Z,101496.55
2023-05-11T03:08:29.264Z,101493.96
2023-05-11T03:10:56.680Z,101493.85
2023-05-11T03:13:24.192Z,101495.41
2023-05-11T03:15:53.177Z,101495.89
2023-05-11T03:18:21.282Z,101499.18
2023-05-11T03:20:48.203Z,101499.33
2023-05-11T03:23:15.068Z,101502.23
2023-05-11T03:25:45.534Z,101504.78
2023-05-11T03:28:12.611Z,101505.91
2023-05-11T03:30:40.664Z,101504.94
2023-05-11T03:33:07.688Z,101506.06
2023-05-11T03:35:34.828Z,101506.39
2023-05-11T03:38:02.347Z,101507.75
2023-05-11T03:40:31.248Z,101508.82
2023-05-11T03:42:59.617Z,101516.76
2023-05-11T03:45:27.967Z,101514.66
2023-05-11T03:47:55.377Z,101516.54
2023-05-11T03:50:25.177Z,101517.61
2023-05-11T03:52:52.271Z,101516.33
2023-05-11T03:55:19.738Z,101515.25
2023-05-11T03:57:47.312Z,101514.37
2023-05-11T04:00:14.666Z,101511.15
2023-05-11T04:02:44.653Z,101511.38
2023-05-11T04:05:12.321Z,101514.38
2023-05-11T04:07:39.899Z,101514.26
2023-05-11T04:10:07.678Z,101514.18
2023-05-11T04:12:34.824Z,101513.96
2023-05-11T04:15:01.696Z,101513.91
2023-05-11T04:17:28.765Z,101511.27
2023-05-11T04:19:55.640Z,101514.56
2023-05-11T04:22:23.439Z,101518.84
2023-05-11T04:24:50.552Z,101520.75
2023-05-11T04:27:18.463Z,101526.02
2023-05-11T04:29:45.681Z,101526.23
2023-05-11T04:32:15.005Z,101530.17
2023-05-11T04:34:43.503Z,101532.67
2023-05-11T04:37:11.136Z,101536.82
2023-05-11T04:39:39.002Z,101531.19
2023-05-11T04:42:06.289Z,101530.08
2023-05-11T04:44:34.304Z,101525.88
2023-05-11T04:47:01.408Z,101531.29
2023-05-11T04:49:28.699Z,101529.61
2023-05-11T04:51:55.909Z,101531.52
2023-05-11T04:54:23.290Z,101525.03
2023-05-11T04:56:50.118Z,101524.29
2023-05-11T04:59:17.299Z,101528.31
2023-05-11T05:01:44.535Z,101526.99
2023-05-11T05:04:11.487Z,101530.34
2023-05-11T05:06:39.046Z,101529.59
2023-05-11T05:09:06.476Z,101529.58
2023-05-11T05:11:33.891Z,101524.66
2023-05-11T05:14:01.424Z,101522.98
2023-05-11T05:16:30.880Z,101524.80
2023-05-11T05:18:59.756Z,101522.97
2023-05-11T05:21:27.389Z,101519.95
2023-05-11T05:25:05.680Z,101520.34
2023-05-11T05:27:34.731Z,101522.24
2023-05-11T05:30:04.036Z,101522.08
2023-05-11T05:32:32.329Z,101515.84
2023-05-11T05:34:59.610Z,101514.59
2023-05-11T05:37:28.863Z,101511.85
2023-05-11T05:39:56.943Z,101514.83
2023-05-11T05:42:24.202Z,101516.93
2023-05-11T05:44:51.847Z,101515.84
2023-05-11T05:47:19.547Z,101518.52
2023-05-11T05:49:47.741Z,101517.30
2023-05-11T05:52:15.889Z,101523.28
2023-05-11T05:54:43.601Z,101515.70
2023-05-11T05:57:12.795Z,101517.46
2023-05-11T05:59:41.741Z,101518.02
2023-05-11T06:02:09.446Z,101520.58
2023-05-11T06:04:37.309Z,101518.05
2023-05-11T06:07:06.123Z,101518.25
2023-05-11T06:09:37.369Z,101519.90
2023-05-11T06:12:09.828Z,101519.57
2023-05-11T06:14:41.281Z,101515.35
2023-05-11T06:17:08.957Z,101515.61
2023-05-11T06:19:37.440Z,101517.01
2023-05-11T06:22:07.593Z,101514.59
2023-05-11T06:24:35.454Z,101518.86
2023-05-11T06:27:03.268Z,101511.04
2023-05-11T06:30:39.597Z,101512.73
2023-05-11T06:33:50.227Z,101510.04
2023-05-11T06:36:26.645Z,101513.51
2023-05-11T06:38:54.201Z,101513.99
2023-05-11T06:41:22.185Z,101513.74
2023-05-11T06:43:50.945Z,101510.69
2023-05-11T17:41:35.842Z,101512.42
2023-05-11T17:44:05.502Z,101517.10
2023-05-11T17:46:34.116Z,101518.86
2023-05-11T17:49:03.192Z,101520.59
2023-05-11T17:51:31.037Z,101524.73
2023-05-11T17:54:00.218Z,101526.96
2023-05-11T17:56:27.466Z,101525.62
2023-05-11T17:58:54.978Z,101526.24
2023-05-11T18:01:22.365Z,101531.31
2023-05-11T18:03:50.029Z,101531.58
2023-05-11T18:06:18.656Z,101531.41
2023-05-11T18:08:46.324Z,101533.31
2023-05-11T18:11:14.254Z,101537.11
2023-05-11T18:13:41.644Z,101538.10
2023-05-11T18:16:09.132Z,101534.94
2023-05-11T18:18:37.087Z,101540.02
2023-05-11T18:21:06.144Z,101541.41
2023-05-11T18:23:33.731Z,101543.89
2023-05-11T18:26:01.544Z,101540.52
2023-05-11T18:28:29.624Z,101540.84
2023-05-11T18:30:56.958Z,101543.83
2023-05-11T18:33:24.439Z,101545.25
2023-05-11T18:35:52.636Z,101543.90
2023-05-11T18:38:19.799Z,101546.20
2023-05-11T18:40:47.173Z,101547.52
2023-05-11T18:43:14.681Z,101549.40
2023-05-11T18:45:45.223Z,101548.65
2023-05-11T18:48:14.089Z,101547.34
2023-05-11T18:50:41.934Z,101546.50
2023-05-11T18:53:09.172Z,101551.63
2023-05-11T18:55:48.894Z,101547.31
2023-05-11T18:58:20.053Z,101551.27
2023-05-11T19:00:51.240Z,101552.41
2023-05-11T19:03:20.478Z,101552.85
2023-05-11T19:05:48.480Z,101547.29
2023-05-11T19:08:15.969Z,101546.04
2023-05-11T19:10:44.799Z,101548.63
2023-05-11T19:13:12.730Z,101551.66
2023-05-11T19:15:39.810Z,101555.03
2023-05-11T19:18:06.590Z,101552.69
2023-05-11T19:20:33.878Z,101556.55
2023-05-11T19:23:00.767Z,101559.69
2023-05-11T19:25:27.897Z,101561.82
2023-05-11T19:27:56.821Z,101559.81
2023-05-11T19:30:24.170Z,101564.58
2023-05-11T19:32:51.220Z,101567.20
2023-05-11T19:35:18.651Z,101569.20
2023-05-11T19:37:47.587Z,101568.19
2023-05-11T19:42:46.156Z,101566.83
2023-05-11T19:45:16.425Z,101568.11
2023-05-11T19:47:44.182Z,101563.85
2023-05-11T19:50:11.898Z,101564.14
2023-05-11T19:52:38.806Z,101562.80
2023-05-11T19:55:06.028Z,101560.52
2023-05-11T19:57:36.691Z,101561.60
2023-05-11T20:00:06.645Z,101561.78
2023-05-11T20:02:34.343Z,101562.30
2023-05-11T20:05:04.047Z,101561.08
2023-05-11T20:07:32.366Z,101563.16
2023-05-11T20:09:59.317Z,101565.45
2023-05-11T20:12:26.676Z,101562.95
2023-05-11T20:14:53.828Z,101563.23
2023-05-11T20:17:21.189Z,101565.23
2023-05-11T20:19:48.046Z,101563.92
2023-05-11T20:22:14.957Z,101567.38
2023-05-11T20:24:41.840Z,101567.07
2023-05-11T20:27:10.503Z,101568.92
2023-05-11T20:29:39.760Z,101571.31
2023-05-11T20:32:07.097Z,101571.97
2023-05-11T20:34:35.030Z,101569.48
2023-05-11T20:37:01.943Z,101568.70
2023-05-11T20:39:29.107Z,101569.56
2023-05-11T20:41:58.136Z,101569.33
2023-05-11T20:44:25.387Z,101564.88
2023-05-11T20:46:52.397Z,101569.11
2023-05-11T20:49:34.540Z,101571.65
2023-05-11T20:52:05.362Z,101571.46
2023-05-11T20:54:34.372Z,101569.92
2023-05-11T20:57:02.239Z,101572.96
2023-05-11T21:02:01.253Z,101579.08
2023-05-11T21:04:30.771Z,101577.95
2023-05-11T21:06:57.769Z,101577.92
2023-05-11T21:09:24.814Z,101576.80
2023-05-11T21:11:51.634Z,101575.00
2023-05-11T21:14:18.621Z,101573.72
2023-05-11T21:16:45.545Z,101571.80
2023-05-11T21:19:12.411Z,101575.48
2023-05-11T21:21:39.140Z,101573.08
2023-05-11T21:24:06.211Z,101573.22
2023-05-11T21:26:33.516Z,101570.05
2023-05-11T21:29:00.325Z,101572.95
2023-05-11T21:31:28.084Z,101569.57
2023-05-11T21:33:54.938Z,101573.17
2023-05-11T21:36:22.086Z,101572.85
2023-05-11T21:38:49.383Z,101571.48
2023-05-11T21:41:16.341Z,101572.39
2023-05-11T21:43:43.094Z,101570.74
2023-05-11T21:46:10.066Z,101570.37
2023-05-11T21:48:37.107Z,101572.06
2023-05-11T21:51:04.099Z,101575.89
2023-05-11T21:53:31.057Z,101575.55
2023-05-11T21:55:57.757Z,101579.52
2023-05-11T21:58:24.469Z,101577.17
2023-05-11T22:00:51.554Z,101576.88
2023-05-11T22:03:19.024Z,101582.83
2023-05-11T22:05:46.490Z,101581.70
2023-05-11T22:08:15.280Z,101581.96
2023-05-11T22:10:42.734Z,101582.77
2023-05-11T22:13:09.719Z,101583.29
2023-05-11T22:15:36.822Z,101580.91
2023-05-11T22:18:04.485Z,101583.80
2023-05-11T22:20:31.679Z,101581.88
2023-05-11T22:22:58.755Z,101580.83
2023-05-11T22:25:25.978Z,101580.04
2023-05-11T22:27:52.685Z,101579.36
2023-05-11T22:30:19.873Z,101580.92
2023-05-11T22:32:47.487Z,101580.35
2023-05-11T22:35:14.420Z,101578.98
2023-05-11T22:37:41.309Z,101583.92
2023-05-11T22:40:09.026Z,101582.46
2023-05-11T22:42:35.794Z,101583.95
2023-05-11T22:45:02.704Z,101583.63
2023-05-11T22:47:30.103Z,101582.69
2023-05-11T22:49:56.977Z,101585.39
2023-05-11T22:52:23.771Z,101586.77
2023-05-11T22:54:54.529Z,101588.73
2023-05-11T22:57:23.428Z,101585.02
2023-05-11T22:59:50.294Z,101586.56
2023-05-11T23:02:17.140Z,101585.04
2023-05-11T23:04:47.923Z,101584.77
2023-05-11T23:07:14.753Z,101584.52
2023-05-11T23:09:41.466Z,101582.92
2023-05-11T23:12:08.319Z,101582.17
2023-05-11T23:14:35.900Z,101582.63
2023-05-11T23:17:02.630Z,101585.48
2023-05-11T23:19:29.676Z,101587.10
2023-05-11T23:21:56.666Z,101588.85
2023-05-11T23:24:23.422Z,101586.39
2023-05-11T23:26:50.236Z,101587.26
2023-05-11T23:29:17.058Z,101589.89
2023-05-11T23:31:44.020Z,101587.27
2023-05-11T23:34:10.763Z,101590.92
2023-05-11T23:36:37.611Z,101591.68
2023-05-11T23:39:04.895Z,101592.52
2023-05-11T23:41:32.130Z,101591.92
2023-05-11T23:44:00.141Z,101589.35
2023-05-11T23:46:26.848Z,101590.04
2023-05-11T23:48:54.519Z,101589.52
2023-05-11T23:51:21.481Z,101589.66
2023-05-11T23:53:48.273Z,101592.85
2023-05-11T23:56:15.137Z,101595.34
2023-05-11T23:58:45.132Z,101596.05
